Monday, October 16, 2017, 8:15 PM EDT
Back to Local

KCBE, Cumberland, Greater Cumberland Regional Airport

Location: Wiley Ford, MD, United States Lat: 39.615
Local Time: 8:15 PM EDT ( 0:15 GMT) Lon: -78.761
Time Zone: US/Eastern Elev: 774 ft

Show me the last for .
Show Decoded

2017-10-16 19:46 METAR KCBE 162346Z AUTO 35008KT 10SM BKN060 13/01 A3026 RMK AO1 =
2017-10-16 19:26 METAR KCBE 162326Z AUTO 34004KT 10SM BKN065 BKN080 13/00 A3026 RMK AO1 =
2017-10-16 19:06 METAR KCBE 162306Z AUTO 35007KT 10SM SCT065 SCT080 13/00 A3025 RMK AO1 =
2017-10-16 18:46 METAR KCBE 162246Z AUTO 32005KT 10SM BKN080 14/00 A3024 RMK AO1 =
2017-10-16 18:26 METAR KCBE 162226Z AUTO 34011G17KT 10SM CLR 14/00 A3023 RMK AO1 =
2017-10-16 18:06 METAR KCBE 162206Z AUTO 32004KT 10SM CLR 14/00 A3022 RMK AO1 =
2017-10-16 17:46 METAR KCBE 162146Z AUTO 30009KT 10SM CLR 14/00 A3022 RMK AO1 =
2017-10-16 17:26 METAR KCBE 162126Z AUTO 31009G18KT 10SM CLR 15/00 A3022 RMK AO1 =
2017-10-16 17:06 METAR KCBE 162106Z AUTO 31011G16KT 10SM CLR 15/00 A3022 RMK AO1 =
2017-10-16 16:46 METAR KCBE 162046Z AUTO 33013G19KT 10SM CLR 16/00 A3021 RMK AO1 =
2017-10-16 16:26 METAR KCBE 162026Z AUTO 30013G19KT 271V331 10SM CLR 16/00 A3021 RMK AO1 =
2017-10-16 16:06 METAR KCBE 162006Z AUTO 34008G21KT 10SM SCT075 16/00 A3021 RMK AO1 =
2017-10-16 15:46 METAR KCBE 161946Z AUTO 34013G18KT 10SM SCT070 16/00 A3021 RMK AO1 =
2017-10-16 15:26 METAR KCBE 161926Z AUTO 32010G15KT 10SM SCT060 SCT075 16/00 A3020 RMK AO1 =
2017-10-16 15:06 METAR KCBE 161906Z AUTO 34012G24KT 10SM SCT060 16/00 A3021 RMK AO1 =
2017-10-16 14:46 METAR KCBE 161846Z AUTO 32011G21KT 271V341 10SM CLR 16/00 A3020 RMK AO1 =
2017-10-16 14:26 METAR KCBE 161826Z AUTO 31011G21KT 271V341 10SM CLR 16/00 A3020 RMK AO1 =
2017-10-16 14:06 METAR KCBE 161806Z AUTO 33016G25KT 10SM CLR 16/00 A3020 RMK AO1 =
2017-10-16 13:46 METAR KCBE 161746Z AUTO 34014G21KT 10SM CLR 16/00 A3020 RMK AO1 =
2017-10-16 13:26 METAR KCBE 161726Z AUTO 32007G21KT 171V081 10SM CLR 16/00 A3020 RMK AO1 =
2017-10-16 13:06 METAR KCBE 161706Z AUTO 30012G19KT 10SM CLR 16/01 A3020 RMK AO1 =
2017-10-16 12:46 METAR KCBE 161646Z AUTO 30013G22KT 271V331 10SM CLR 16/01 A3020 RMK AO1 =
2017-10-16 12:26 METAR KCBE 161626Z AUTO 34010G21KT 10SM SCT050 16/01 A3021 RMK AO1 =
2017-10-16 12:06 METAR KCBE 161606Z AUTO 32013G19KT 10SM SCT050 15/01 A3021 RMK AO1 =
2017-10-16 11:46 METAR KCBE 161546Z AUTO 31009G19KT 10SM SCT046 SCT050 15/02 A3020 RMK AO1 =
2017-10-16 11:26 METAR KCBE 161526Z AUTO 32009G15KT 271V001 10SM SCT046 SCT050 13/03 A3020 RMK
                 AO1 =
2017-10-16 11:06 METAR KCBE 161506Z AUTO 33007G14KT 10SM SCT044 BKN050 13/03 A3020 RMK AO1 =
2017-10-16 10:46 METAR KCBE 161446Z AUTO 34003KT 10SM OVC042 12/03 A3022 RMK AO1 =
2017-10-16 10:26 METAR KCBE 161426Z AUTO 34004KT 10SM BKN044 BKN049 12/03 A3022 RMK AO1 =
2017-10-16 10:06 METAR KCBE 161406Z AUTO 32008KT 301V011 10SM SCT038 BKN044 12/03 A3022 RMK AO1 =
2017-10-16 09:46 METAR KCBE 161346Z AUTO 32010G19KT 10SM SCT039 SCT044 12/03 A3021 RMK AO1 =
2017-10-16 09:26 METAR KCBE 161326Z AUTO 33010G16KT 311V011 10SM SCT055 12/03 A3020 RMK AO1 =
2017-10-16 09:06 METAR KCBE 161306Z AUTO 34010G17KT 10SM SCT035 SCT047 BKN055 12/04 A3018 RMK AO1
                 =
2017-10-16 08:46 METAR KCBE 161246Z AUTO 32007G17KT 10SM SCT035 BKN049 12/05 A3018 RMK AO1 =
2017-10-16 08:26 METAR KCBE 161226Z AUTO 31009G18KT 10SM OVC049 12/05 A3017 RMK AO1 =
2017-10-16 08:06 METAR KCBE 161206Z AUTO 32010G20KT 10SM OVC047 13/05 A3015 RMK AO1 =
2017-10-16 07:46 METAR KCBE 161146Z AUTO 31009G17KT 261V351 10SM OVC047 13/06 A3014 RMK AO1 =
2017-10-16 07:26 METAR KCBE 161126Z AUTO 33008KT 271V351 10SM OVC048 13/06 A3013 RMK AO1 =
2017-10-16 07:06 METAR KCBE 161106Z AUTO 33012G16KT 10SM SCT037 OVC048 13/06 A3012 RMK AO1 =
2017-10-16 06:46 METAR KCBE 161046Z AUTO 33011G17KT 10SM SCT039 OVC045 13/07 A3011 RMK AO1 =
2017-10-16 06:26 METAR KCBE 161026Z AUTO 33012G17KT 10SM SCT035 BKN040 OVC060 13/07 A3010 RMK AO1
                 =
2017-10-16 06:06 METAR KCBE 161006Z AUTO 33008KT 10SM BKN035 BKN044 BKN060 15/07 A3009 RMK AO1 =
2017-10-16 05:46 METAR KCBE 160946Z AUTO 29006KT 10SM BKN035 BKN044 OVC050 15/08 A3008 RMK AO1 =
2017-10-16 05:26 METAR KCBE 160926Z AUTO 29003KT 10SM SCT035 SCT042 OVC050 15/08 A3008 RMK AO1 =
2017-10-16 05:06 METAR KCBE 160906Z AUTO 32007G14KT 281V341 10SM SCT037 SCT048 SCT050 15/08 A3007
                 RMK AO1 =
2017-10-16 04:46 METAR KCBE 160846Z AUTO 31005G14KT 10SM SCT039 15/08 A3007 RMK AO1 =
2017-10-16 04:26 METAR KCBE 160826Z AUTO 32006KT 10SM CLR 15/08 A3007 RMK AO1 =
2017-10-16 04:06 METAR KCBE 160806Z AUTO 30006G14KT 10SM CLR 15/08 A3006 RMK AO1 =
2017-10-16 03:46 METAR KCBE 160746Z AUTO 29005KT 261V331 10SM CLR 15/09 A3007 RMK AO1 =
2017-10-16 03:26 METAR KCBE 160726Z AUTO 30006KT 10SM CLR 16/09 A3006 RMK AO1 =
2017-10-16 03:06 METAR KCBE 160706Z AUTO 30006G14KT 10SM CLR 16/09 A3005 RMK AO1 =
2017-10-16 02:46 METAR KCBE 160646Z AUTO 29009KT 10SM SCT050 16/10 A3006 RMK AO1 =
2017-10-16 02:26 METAR KCBE 160626Z AUTO 28008KT 241V301 10SM SCT050 16/10 A3006 RMK AO1 =
2017-10-16 02:06 METAR KCBE 160606Z AUTO 27007KT 10SM CLR 16/10 A3005 RMK AO1 =
2017-10-16 01:46 METAR KCBE 160546Z AUTO 28007G16KT 10SM SCT049 17/10 A3005 RMK AO1 =
2017-10-16 01:26 METAR KCBE 160526Z AUTO 28010G17KT 10SM SCT038 SCT046 17/11 A3004 RMK AO1 =
2017-10-16 01:06 METAR KCBE 160506Z AUTO 28009KT 251V321 10SM SCT038 SCT046 17/11 A3004 RMK AO1 =
2017-10-16 00:46 METAR KCBE 160446Z AUTO 28007KT 10SM SCT034 SCT070 17/11 A3003 RMK AO1 =
2017-10-16 00:26 METAR KCBE 160426Z AUTO 28005KT 10SM SCT070 SCT120 18/12 A3002 RMK AO1 =
2017-10-16 00:06 METAR KCBE 160406Z AUTO 26008KT 10SM SCT075 SCT080 18/12 A3002 RMK AO1 =
2017-10-15 23:46 METAR KCBE 160346Z AUTO 30005KT 10SM SCT075 18/12 A3000 RMK AO1 =
2017-10-15 23:26 METAR KCBE 160326Z AUTO 29006KT 10SM SCT025 SCT032 SCT070 18/12 A3000 RMK AO1 =
2017-10-15 23:06 METAR KCBE 160306Z AUTO 29008KT 10SM BKN027 BKN034 19/15 A2999 RMK AO1 =
2017-10-15 22:46 METAR KCBE 160246Z AUTO 28004KT 10SM BKN027 BKN047 19/15 A2999 RMK AO1 =
2017-10-15 22:26 METAR KCBE 160226Z AUTO 30004KT 10SM SCT028 BKN048 OVC070 20/15 A2998 RMK AO1 =
2017-10-15 22:06 METAR KCBE 160206Z AUTO 31006KT 10SM SCT029 BKN070 20/16 A2996 RMK AO1 =
2017-10-15 21:46 METAR KCBE 160146Z AUTO 33004G18KT 10SM SCT008 SCT013 BKN070 21/17 A2994 RMK AO1
                 =
2017-10-15 21:26 METAR KCBE 160126Z AUTO 29005G26KT 1 1/2SM BKN008 BKN012 BKN019 20/18 A2992 RMK
                 AO1 =
2017-10-15 21:06 METAR KCBE 160106Z AUTO 21005KT 10SM SCT070 BKN080 25/15 A2988 RMK AO1 =
2017-10-15 20:46 METAR KCBE 160046Z AUTO 19007KT 10SM SCT070 SCT090 26/15 A2987 RMK AO1 =
2017-10-15 20:26 METAR KCBE 160026Z AUTO 21008KT 10SM SCT060 SCT070 SCT090 26/15 A2988 RMK AO1 =

Support USWX by starting your Amazon purchase here.